Weather History for Ogallala, NE

Change the Weather History Date:

Tuesday, May 14, 2013

  Actual Average Record
Temperature  
Mean Temperature 74 °F -  
Max Temperature 95 °F 71 °F 95 °F (2013)
Min Temperature 53 °F 42 °F 30 °F (1953)
Cooling Degree Days 9    
Growing Degree Days 24 (Base 50)    
Moisture  
Dew Point 41 °F    
Average Humidity 33    
Maximum Humidity 71    
Minimum Humidity 11    
Precipitation  
Precipitation 0.00 in - - ()
Sea Level Pressure  
Sea Level Pressure 29.85 in    
Wind  
Wind Speed 7 mph (NNW)    
Max Wind Speed 18 mph    
Max Gust Speed 24 mph    
Visibility 10 miles    
Events Thunderstorm    
Averages and records for this station are not official NWS values.
T = Trace of Precipitation, MM = Missing Value Source: NWS Daily Summary

Daily Weather History Graph

Daily Weather History Graph

Search for Another Location

Airport:

Trip Planner

Search our weather history database for the weather conditions in past years. The results will help you decide how hot, cold, wet, or windy it might be!

Date:

Astronomy

May. 14, 2013 Rise Set
Actual Time 5:29 AM MDT 7:57 PM MDT
Civil Twilight 4:58 AM MDT 8:29 PM MDT
Nautical Twilight 4:19 AM MDT 9:08 PM MDT
Astronomical Twilight 3:36 AM MDT 9:51 PM MDT
Moon 9:11 AM MDT (5/14) 11:46 PM MDT (5/14)
Length of Visible Light 15h 30m
Length of Day
14h 28m
Waxing Crescent, 19% of the Moon is Illuminated
May 14
Waxing Crescent
May 17
First Quarter
May 24
Full
May 31
Last Quarter
Jun 8
New

Hourly Weather History & Observations

Time (MDT) Temp. Dew Point Humidity Pressure Visibility Wind Dir Wind Speed Gust Speed Precip Events Conditions
12:15 AM 68.0 °F 39.4 °F 35% 29.91 in 10.0 mi WSW 5.8 mph - N/A   Clear
12:35 AM 66.7 °F 39.6 °F 37% 29.91 in 10.0 mi WSW 3.5 mph - N/A   Clear
12:55 AM 66.4 °F 39.2 °F 37% 29.90 in 10.0 mi West 6.9 mph - N/A   Clear
1:15 AM 66.6 °F 39.2 °F 37% 29.89 in 10.0 mi West 5.8 mph - N/A   Clear
1:35 AM 64.2 °F 40.6 °F 42% 29.89 in 10.0 mi West 6.9 mph - N/A   Clear
1:55 AM 62.6 °F 42.1 °F 47% 29.88 in 10.0 mi WSW 6.9 mph - N/A   Clear
2:15 AM 60.6 °F 41.9 °F 50% 29.88 in 10.0 mi West 6.9 mph - N/A   Clear
2:35 AM 59.9 °F 41.9 °F 51% 29.88 in 10.0 mi West 5.8 mph - N/A   Clear
2:55 AM 55.9 °F 42.8 °F 61% 29.88 in 10.0 mi West 4.6 mph - N/A   Clear
3:15 AM 54.5 °F 42.8 °F 65% 29.88 in 10.0 mi West 6.9 mph - N/A   Clear
3:35 AM 57.4 °F 42.4 °F 57% 29.88 in 10.0 mi WSW 5.8 mph - N/A   Clear
3:55 AM 55.0 °F 43.2 °F 64% 29.88 in 10.0 mi WSW 6.9 mph - N/A   Clear
4:15 AM 54.0 °F 42.6 °F 65% 29.88 in 10.0 mi SW 4.6 mph - N/A   Clear
4:35 AM 53.1 °F 42.1 °F 66% 29.88 in 10.0 mi WSW 8.1 mph - N/A   Clear
4:55 AM 53.8 °F 42.8 °F 66% 29.88 in 10.0 mi WSW 8.1 mph - N/A   Clear
5:15 AM 54.7 °F 43.0 °F 65% 29.88 in 10.0 mi WSW 5.8 mph - N/A   Clear
5:35 AM 53.8 °F 43.3 °F 68% 29.88 in 10.0 mi West 9.2 mph - N/A   Clear
5:55 AM 53.2 °F 43.9 °F 71% 29.88 in 10.0 mi West 6.9 mph - N/A   Clear
6:15 AM 55.8 °F 44.6 °F 66% 29.88 in 10.0 mi WSW 6.9 mph - N/A   Clear
6:35 AM 57.0 °F 45.9 °F 66% 29.88 in 10.0 mi West 5.8 mph - N/A   Clear
6:55 AM 59.5 °F 46.9 °F 63% 29.88 in 10.0 mi West 4.6 mph - N/A   Clear
7:15 AM 62.4 °F 47.7 °F 58% 29.88 in 10.0 mi West 6.9 mph - N/A   Clear
7:35 AM 64.6 °F 48.2 °F 55% 29.89 in 10.0 mi West 5.8 mph - N/A   Clear
7:55 AM 67.8 °F 48.6 °F 50% 29.88 in 10.0 mi WSW 8.1 mph - N/A   Clear
8:15 AM 70.7 °F 48.4 °F 45% 29.88 in 10.0 mi WSW 6.9 mph - N/A   Clear
8:35 AM 74.1 °F 47.7 °F 39% 29.88 in 10.0 mi West 8.1 mph - N/A   Clear
8:55 AM 77.2 °F 47.3 °F 35% 29.88 in 10.0 mi West 5.8 mph - N/A   Clear
9:15 AM 80.1 °F 47.1 °F 31% 29.87 in 10.0 mi West 5.8 mph - N/A   Clear
9:35 AM 84.6 °F 46.9 °F 27% 29.87 in 10.0 mi WNW 6.9 mph - N/A   Clear
9:55 AM 87.3 °F 41.7 °F 20% 29.87 in 10.0 mi NNW 13.8 mph - N/A   Clear
10:15 AM 87.8 °F 36.7 °F 16% 29.88 in 10.0 mi NNW 13.8 mph 19.6 mph N/A   Clear
10:35 AM 87.8 °F 38.5 °F 18% 29.88 in 10.0 mi NNW 12.7 mph - N/A   Clear
10:55 AM 88.7 °F 39.7 °F 18% 29.87 in 10.0 mi NNW 11.5 mph - N/A   Clear
11:15 AM 90.9 °F 39.0 °F 16% 29.87 in 10.0 mi NNW 8.1 mph - N/A   Clear
11:35 AM 91.2 °F 37.0 °F 15% 29.86 in 10.0 mi North 9.2 mph - N/A   Clear
11:55 AM 92.7 °F 36.0 °F 14% 29.86 in 10.0 mi North 10.4 mph 16.1 mph N/A   Clear
12:15 PM 93.6 °F 34.3 °F 12% 29.86 in 10.0 mi NNW 6.9 mph - N/A   Clear
12:35 PM 94.3 °F 34.3 °F 12% 29.84 in 10.0 mi North 11.5 mph - N/A   Clear
12:55 PM 95.2 °F 34.2 °F 12% 29.84 in 10.0 mi North 4.6 mph 18.4 mph N/A   Clear
1:15 PM 95.4 °F 32.4 °F 11% 29.84 in 10.0 mi North 8.1 mph 18.4 mph N/A   Clear
1:35 PM 95.0 °F 33.1 °F 11% 29.83 in 10.0 mi North 9.2 mph 24.2 mph N/A   Clear
1:55 PM 94.3 °F 32.4 °F 11% 29.83 in 10.0 mi NNE 8.1 mph 17.3 mph N/A   Clear
2:15 PM 94.5 °F 34.5 °F 12% 29.82 in 10.0 mi NNE 11.5 mph 17.3 mph N/A   Clear
2:35 PM 95.9 °F 35.4 °F 12% 29.82 in 10.0 mi NNW 9.2 mph 17.3 mph N/A   Clear
2:55 PM 94.5 °F 32.9 °F 11% 29.81 in 10.0 mi NNE 4.6 mph 16.1 mph N/A   Clear
3:15 PM 95.0 °F 34.0 °F 12% 29.81 in 10.0 mi ENE 11.5 mph - N/A   Clear
3:35 PM 94.1 °F 33.6 °F 12% 29.80 in 10.0 mi NE 5.8 mph - N/A   Clear
3:55 PM 95.4 °F 34.5 °F 12% 29.79 in 10.0 mi ENE 13.8 mph - N/A   Clear
4:15 PM 94.8 °F 32.2 °F 11% 29.79 in 10.0 mi NE 3.5 mph 9.2 mph N/A   Clear
4:35 PM 94.5 °F 33.4 °F 12% 29.78 in 10.0 mi NE 3.5 mph - N/A   Clear
4:55 PM 94.1 °F 32.5 °F 11% 29.78 in 10.0 mi Calm Calm - N/A   Clear
5:15 PM 92.1 °F 33.6 °F 13% 29.78 in 10.0 mi NE 3.5 mph - N/A   Clear
5:35 PM 91.8 °F 35.6 °F 14% 29.78 in 10.0 mi NNE 5.8 mph - N/A   Clear
5:55 PM 88.5 °F 40.8 °F 19% 29.77 in 10.0 mi NNE 5.8 mph - N/A   Clear
6:15 PM 88.5 °F 41.0 °F 19% 29.77 in 10.0 mi Calm Calm - N/A   Clear
6:35 PM 87.8 °F 43.7 °F 21% 29.77 in 10.0 mi NE 5.8 mph - N/A   Clear
6:55 PM 87.8 °F 39.7 °F 18% 29.77 in 10.0 mi East 8.1 mph - N/A   Clear
7:15 PM 86.9 °F 37.9 °F 18% 29.77 in 10.0 mi East 6.9 mph - N/A   Clear
7:35 PM 84.2 °F 40.6 °F 21% 29.78 in 10.0 mi East 9.2 mph - N/A   Clear
7:55 PM 84.4 °F 40.1 °F 21% 29.79 in 10.0 mi East 10.4 mph - N/A   Clear
8:15 PM 83.3 °F 41.9 °F 23% 29.79 in 10.0 mi East 10.4 mph - N/A   Clear
8:35 PM 82.4 °F 42.1 °F 24% 29.81 in 10.0 mi East 12.7 mph - N/A   Clear
8:55 PM 82.4 °F 42.8 °F 25% 29.82 in 10.0 mi East 18.4 mph 23.0 mph N/A   Clear
9:15 PM 81.0 °F 43.9 °F 27% 29.86 in 10.0 mi East 15.0 mph 23.0 mph N/A   Scattered Clouds
9:35 PM 79.9 °F 44.6 °F 29% 29.87 in 10.0 mi East 18.4 mph - N/A   Scattered Clouds
9:55 PM 78.8 °F 44.8 °F 30% 29.88 in 10.0 mi East 16.1 mph - N/A   Scattered Clouds
10:15 PM 77.4 °F 44.6 °F 31% 29.88 in 10.0 mi ENE 16.1 mph 21.9 mph N/A Thunderstorm Scattered Clouds
10:35 PM 75.2 °F 44.8 °F 34% 29.88 in 10.0 mi ENE 13.8 mph - N/A Thunderstorm Scattered Clouds
10:55 PM 74.5 °F 44.8 °F 35% 29.90 in 10.0 mi East 12.7 mph - N/A   Scattered Clouds
11:15 PM 73.6 °F 45.1 °F 36% 29.91 in 10.0 mi SW 3.5 mph - N/A   Clear
11:35 PM 73.2 °F 43.7 °F 35% 29.91 in 10.0 mi Calm Calm - N/A   Clear
11:55 PM 70.0 °F 45.7 °F 42% 29.93 in 10.0 mi ENE 6.9 mph - N/A   Clear